Saint Bonnet de Bellac- Haute Vienne - France
Donnes mto: samedi, 04/02/2012
Date Horaire Temp. E. Hum. E. P.atmo. Pluie Vent Direction Direction Ensoleilleme Solaire P. de rose Temp au vent Rafales
04/02/2012 00:00 -6,9 C 71 % 1032,3 hPa 0,0 mm 5,0 km/h (1 Bft) N-NE 22 0 min 0 W/m -11,2 C -9,4 C 7,6 km/h (2 Bft)
04/02/2012 00:10 -7,0 C 71 % 1032,5 hPa 0,0 mm 4,0 km/h (1 Bft) NE 45 0 min 0 W/m -11,3 C -7,0 C 8,6 km/h (2 Bft)
04/02/2012 00:20 -7,1 C 72 % 1032,5 hPa 0,0 mm 2,5 km/h (1 Bft) N 360 0 min 0 W/m -11,3 C -7,1 C 7,9 km/h (2 Bft)
04/02/2012 00:30 -7,1 C 72 % 1032,5 hPa 0,0 mm 0,0 km/h (0 Bft) N 360 0 min 0 W/m -11,3 C -7,1 C 4,0 km/h (1 Bft)
04/02/2012 00:40 -7,1 C 72 % 1032,5 hPa 0,0 mm 2,5 km/h (1 Bft) N-NE 22 0 min 0 W/m -11,3 C -7,1 C 2,9 km/h (1 Bft)
04/02/2012 00:50 -7,1 C 73 % 1032,4 hPa 0,0 mm 1,4 km/h (1 Bft) N-NO 337 0 min 0 W/m -11,1 C -7,1 C 3,6 km/h (1 Bft)
04/02/2012 01:00 -6,9 C 73 % 1032,3 hPa 0,0 mm 5,8 km/h (2 Bft) N-NE 22 0 min 0 W/m -10,9 C -9,9 C 9,0 km/h (2 Bft)
04/02/2012 01:10 -6,9 C 73 % 1032,3 hPa 0,0 mm 0,7 km/h (0 Bft) N-NE 22 0 min 0 W/m -10,9 C -6,9 C 4,3 km/h (1 Bft)
04/02/2012 01:20 -6,8 C 74 % 1032,2 hPa 0,0 mm 3,6 km/h (1 Bft) N 360 0 min 0 W/m -10,6 C -6,8 C 7,9 km/h (2 Bft)
04/02/2012 01:30 -6,7 C 74 % 1031,8 hPa 0,0 mm 4,7 km/h (1 Bft) N-NE 22 0 min 0 W/m -10,5 C -9,0 C 8,6 km/h (2 Bft)
04/02/2012 01:40 -6,5 C 74 % 1031,8 hPa 0,0 mm 3,6 km/h (1 Bft) N-NE 22 0 min 0 W/m -10,3 C -6,5 C 4,0 km/h (1 Bft)
04/02/2012 01:50 -6,4 C 75 % 1031,8 hPa 0,0 mm 5,4 km/h (2 Bft) N 360 0 min 0 W/m -10,1 C -9,1 C 7,6 km/h (2 Bft)
04/02/2012 02:02 -6,2 C 76 % 1031,9 hPa 0,0 mm 5,0 km/h (1 Bft) NE 45 0 min 0 W/m -9,7 C -8,6 C 8,3 km/h (2 Bft)
04/02/2012 02:10 -6,1 C 77 % 1031,8 hPa 0,0 mm 6,5 km/h (2 Bft) N 360 0 min 0 W/m -9,5 C -9,3 C 8,3 km/h (2 Bft)
04/02/2012 02:20 -5,9 C 77 % 1031,8 hPa 0,0 mm 6,8 km/h (2 Bft) N-NE 22 0 min 0 W/m -9,3 C -9,2 C 9,7 km/h (2 Bft)
04/02/2012 02:30 -5,8 C 78 % 1031,7 hPa 0,0 mm 3,6 km/h (1 Bft) NE 45 0 min 0 W/m -9,0 C -5,8 C 7,2 km/h (2 Bft)
04/02/2012 02:40 -5,7 C 79 % 1031,7 hPa 0,0 mm 7,2 km/h (2 Bft) N-NE 22 0 min 0 W/m -8,7 C -9,1 C 10,4 km/h (2 Bft)
04/02/2012 02:50 -5,7 C 79 % 1031,7 hPa 0,0 mm 6,1 km/h (2 Bft) N-NE 22 0 min 0 W/m -8,7 C -8,6 C 6,1 km/h (2 Bft)
04/02/2012 03:00 -5,7 C 79 % 1031,8 hPa 0,0 mm 2,9 km/h (1 Bft) N 360 0 min 0 W/m -8,7 C -5,7 C 7,6 km/h (2 Bft)
04/02/2012 03:10 -5,6 C 80 % 1031,7 hPa 0,0 mm 2,5 km/h (1 Bft) NE 45 0 min 0 W/m -8,5 C -5,6 C 6,8 km/h (2 Bft)
04/02/2012 03:20 -5,6 C 80 % 1031,6 hPa 0,0 mm 5,8 km/h (2 Bft) E-NE 67 0 min 0 W/m -8,5 C -8,4 C 6,5 km/h (2 Bft)
04/02/2012 03:30 -5,7 C 80 % 1031,4 hPa 0,0 mm 5,0 km/h (1 Bft) NE 45 0 min 0 W/m -8,6 C -8,1 C 9,7 km/h (2 Bft)
04/02/2012 03:40 -5,7 C 80 % 1031,5 hPa 0,0 mm 1,8 km/h (1 Bft) N-NE 22 0 min 0 W/m -8,6 C -5,7 C 4,3 km/h (1 Bft)
04/02/2012 03:50 -5,7 C 80 % 1031,3 hPa 0,0 mm 4,3 km/h (1 Bft) N 360 0 min 0 W/m -8,6 C -5,7 C 9,0 km/h (2 Bft)
04/02/2012 04:00 -5,7 C 81 % 1031,3 hPa 0,0 mm 1,8 km/h (1 Bft) N-NE 22 0 min 0 W/m -8,4 C -5,7 C 3,6 km/h (1 Bft)
04/02/2012 04:10 -5,7 C 81 % 1031,2 hPa 0,0 mm 6,1 km/h (2 Bft) N-NE 22 0 min 0 W/m -8,4 C -8,6 C 8,6 km/h (2 Bft)
04/02/2012 04:20 -5,7 C 81 % 1031,0 hPa 0,0 mm 2,9 km/h (1 Bft) N-NE 22 0 min 0 W/m -8,4 C -5,7 C 4,3 km/h (1 Bft)
04/02/2012 04:30 -5,7 C 82 % 1030,9 hPa 0,0 mm 4,7 km/h (1 Bft) N 360 0 min 0 W/m -8,3 C -7,9 C 4,7 km/h (1 Bft)
04/02/2012 04:40 -5,6 C 81 % 1031,0 hPa 0,0 mm 4,7 km/h (1 Bft) N-NE 22 0 min 0 W/m -8,3 C -7,8 C 8,6 km/h (2 Bft)
04/02/2012 04:50 -5,6 C 81 % 1031,1 hPa 0,0 mm 2,5 km/h (1 Bft) N-NE 22 0 min 0 W/m -8,3 C -5,6 C 4,0 km/h (1 Bft)
04/02/2012 05:00 -5,5 C 81 % 1031,2 hPa 0,0 mm 3,2 km/h (1 Bft) N 360 0 min 0 W/m -8,2 C -5,5 C 4,7 km/h (1 Bft)
04/02/2012 05:10 -5,5 C 81 % 1031,1 hPa 0,0 mm 5,0 km/h (1 Bft) NO 315 0 min 0 W/m -8,2 C -7,8 C 6,1 km/h (2 Bft)
04/02/2012 05:20 -5,5 C 81 % 1031,1 hPa 0,0 mm 4,3 km/h (1 Bft) NE 45 0 min 0 W/m -8,2 C -5,5 C 4,3 km/h (1 Bft)
04/02/2012 05:30 -5,4 C 81 % 1031,3 hPa 0,0 mm 6,8 km/h (2 Bft) N-NE 22 0 min 0 W/m -8,1 C -8,6 C 8,3 km/h (2 Bft)
04/02/2012 05:40 -5,4 C 81 % 1031,2 hPa 0,0 mm 3,2 km/h (1 Bft) N-NE 22 0 min 0 W/m -8,1 C -5,4 C 7,2 km/h (2 Bft)
04/02/2012 05:50 -5,4 C 81 % 1031,3 hPa 0,0 mm 2,5 km/h (1 Bft) NE 45 0 min 0 W/m -8,1 C -5,4 C 3,6 km/h (1 Bft)
04/02/2012 06:00 -5,4 C 82 % 1031,2 hPa 0,0 mm 10,1 km/h (2 Bft) E-NE 67 0 min 0 W/m -8,0 C -9,8 C 15,8 km/h (3 Bft)
04/02/2012 06:10 -5,4 C 82 % 1031,1 hPa 0,0 mm 3,6 km/h (1 Bft) NE 45 0 min 0 W/m -8,0 C -5,4 C 3,6 km/h (1 Bft)
04/02/2012 06:20 -5,4 C 82 % 1031,1 hPa 0,0 mm 7,2 km/h (2 Bft) N-NE 22 0 min 0 W/m -8,0 C -8,8 C 10,1 km/h (2 Bft)
04/02/2012 06:30 -5,5 C 83 % 1031,1 hPa 0,0 mm 5,4 km/h (2 Bft) N-NE 22 0 min 0 W/m -7,9 C -8,0 C 6,1 km/h (2 Bft)
04/02/2012 06:40 -5,5 C 83 % 1031,2 hPa 0,0 mm 4,0 km/h (1 Bft) N-NE 22 0 min 0 W/m -7,9 C -5,5 C 6,8 km/h (2 Bft)
04/02/2012 06:50 -5,7 C 83 % 1031,1 hPa 0,0 mm 7,9 km/h (2 Bft) N-NE 22 0 min 0 W/m -8,1 C -9,4 C 10,4 km/h (2 Bft)
04/02/2012 07:00 -5,8 C 83 % 1031,3 hPa 0,0 mm 8,6 km/h (2 Bft) N 360 0 min 0 W/m -8,2 C -9,8 C 13,0 km/h (3 Bft)
04/02/2012 07:10 -6,0 C 84 % 1031,4 hPa 0,0 mm 8,3 km/h (2 Bft) N-NE 22 0 min 0 W/m -8,3 C -9,9 C 10,4 km/h (2 Bft)
04/02/2012 07:20 -6,2 C 84 % 1031,5 hPa 0,0 mm 6,1 km/h (2 Bft) NE 45 0 min 0 W/m -8,4 C -9,2 C 8,6 km/h (2 Bft)
04/02/2012 07:30 -6,3 C 84 % 1031,5 hPa 0,0 mm 2,2 km/h (1 Bft) N-NE 22 0 min 0 W/m -8,5 C -6,3 C 3,2 km/h (1 Bft)
04/02/2012 07:40 -6,6 C 84 % 1031,5 hPa 0,0 mm 3,6 km/h (1 Bft) NE 45 0 min 0 W/m -8,8 C -6,6 C 6,8 km/h (2 Bft)
04/02/2012 07:50 -6,8 C 84 % 1031,7 hPa 0,0 mm 3,2 km/h (1 Bft) N-NE 22 0 min 0 W/m -9,0 C -6,8 C 4,3 km/h (1 Bft)
04/02/2012 08:00 -7,1 C 84 % 1031,9 hPa 0,0 mm 4,0 km/h (1 Bft) NE 45 0 min 0 W/m -9,3 C -7,1 C 7,2 km/h (2 Bft)
04/02/2012 08:10 -7,2 C 84 % 1031,9 hPa 0,0 mm 4,0 km/h (1 Bft) N 360 0 min 0 W/m -9,4 C -7,2 C 4,0 km/h (1 Bft)
04/02/2012 08:20 -7,4 C 85 % 1032,2 hPa 0,0 mm 4,3 km/h (1 Bft) N-NE 22 0 min 0 W/m -9,5 C -7,4 C 6,8 km/h (2 Bft)
04/02/2012 08:30 -7,5 C 85 % 1032,2 hPa 0,0 mm 4,0 km/h (1 Bft) N-NE 22 2 min 0 W/m -9,6 C -7,5 C 4,3 km/h (1 Bft)
04/02/2012 08:40 -7,6 C 85 % 1032,4 hPa 0,0 mm 1,4 km/h (1 Bft) N 360 2 min 0 W/m -9,7 C -7,6 C 3,6 km/h (1 Bft)
04/02/2012 08:50 -7,7 C 85 % 1032,4 hPa 0,0 mm 4,3 km/h (1 Bft) N-NE 22 2 min 0 W/m -9,8 C -7,7 C 7,9 km/h (2 Bft)
04/02/2012 09:00 -7,6 C 85 % 1032,6 hPa 0,0 mm 5,4 km/h (2 Bft) NE 45 2 min 0 W/m -9,7 C -10,4 C 10,8 km/h (2 Bft)
04/02/2012 09:10 -7,1 C 86 % 1032,7 hPa 0,0 mm 2,9 km/h (1 Bft) NE 45 2 min 0 W/m -9,0 C -7,1 C 4,0 km/h (1 Bft)
04/02/2012 09:20 -6,4 C 86 % 1032,8 hPa 0,0 mm 2,9 km/h (1 Bft) NE 45 2 min 0 W/m -8,3 C -6,4 C 3,2 km/h (1 Bft)
04/02/2012 09:30 -5,8 C 85 % 1032,9 hPa 0,0 mm 5,8 km/h (2 Bft) NE 45 2 min 0 W/m -7,9 C -8,6 C 8,3 km/h (2 Bft)
04/02/2012 09:40 -5,4 C 83 % 1033,1 hPa 0,0 mm 4,7 km/h (1 Bft) NE 45 2 min 0 W/m -7,8 C -7,5 C 10,8 km/h (2 Bft)
04/02/2012 09:50 -4,9 C 81 % 1033,1 hPa 0,0 mm 3,2 km/h (1 Bft) NE 45 2 min 0 W/m -7,6 C -4,9 C 4,0 km/h (1 Bft)
04/02/2012 10:00 -4,6 C 80 % 1033,1 hPa 0,0 mm 6,1 km/h (2 Bft) N 360 2 min 0 W/m -7,5 C -7,4 C 14,0 km/h (3 Bft)
04/02/2012 10:10 -4,1 C 78 % 1033,1 hPa 0,0 mm 6,8 km/h (2 Bft) NE 45 2 min 0 W/m -7,4 C -7,1 C 10,8 km/h (2 Bft)
04/02/2012 10:20 -4,0 C 75 % 1033,3 hPa 0,0 mm 5,8 km/h (2 Bft) N-NE 22 2 min 0 W/m -7,8 C -6,5 C 6,1 km/h (2 Bft)
04/02/2012 10:30 -3,7 C 74 % 1033,3 hPa 0,0 mm 4,7 km/h (1 Bft) NE 45 2 min 0 W/m -7,6 C -5,6 C 9,4 km/h (2 Bft)
04/02/2012 10:40 -3,4 C 73 % 1033,4 hPa 0,0 mm 7,6 km/h (2 Bft) NE 45 2 min 0 W/m -7,5 C -6,6 C 11,9 km/h (2 Bft)
04/02/2012 10:50 -3,1 C 70 % 1033,3 hPa 0,0 mm 4,7 km/h (1 Bft) N 360 2 min 0 W/m -7,8 C -4,9 C 8,3 km/h (2 Bft)
04/02/2012 11:00 -2,9 C 68 % 1033,4 hPa 0,0 mm 7,9 km/h (2 Bft) N-NE 22 2 min 0 W/m -8,0 C -6,1 C 10,4 km/h (2 Bft)
04/02/2012 11:10 -2,7 C 67 % 1033,5 hPa 0,0 mm 6,8 km/h (2 Bft) NE 45 2 min 0 W/m -8,0 C -5,5 C 9,0 km/h (2 Bft)
04/02/2012 11:20 -2,6 C 66 % 1033,5 hPa 0,0 mm 3,2 km/h (1 Bft) NE 45 2 min 0 W/m -8,1 C -2,6 C 6,5 km/h (2 Bft)
04/02/2012 11:30 -2,5 C 65 % 1033,8 hPa 0,0 mm 5,0 km/h (1 Bft) N-NE 22 2 min 0 W/m -8,2 C -4,4 C 7,6 km/h (2 Bft)
04/02/2012 11:40 -2,2 C 63 % 1033,8 hPa 0,0 mm 4,0 km/h (1 Bft) NE 45 2 min 0 W/m -8,3 C -2,2 C 8,3 km/h (2 Bft)
04/02/2012 11:50 -2,2 C 61 % 1033,9 hPa 0,0 mm 7,6 km/h (2 Bft) E-NE 67 2 min 0 W/m -8,7 C -5,2 C 11,9 km/h (2 Bft)
04/02/2012 12:00 -2,0 C 61 % 1034,0 hPa 0,0 mm 8,6 km/h (2 Bft) N-NE 22 2 min 0 W/m -8,5 C -5,3 C 12,2 km/h (2 Bft)
04/02/2012 12:10 -1,7 C 61 % 1034,0 hPa 0,0 mm 9,7 km/h (2 Bft) E-NE 67 2 min 0 W/m -8,2 C -5,3 C 11,9 km/h (2 Bft)
04/02/2012 12:20 -1,6 C 60 % 1033,9 hPa 0,0 mm 13,0 km/h (3 Bft) N 360 2 min 0 W/m -8,3 C -6,0 C 20,9 km/h (4 Bft)
04/02/2012 12:30 -1,7 C 58 % 1033,9 hPa 0,0 mm 13,0 km/h (3 Bft) NE 45 2 min 0 W/m -8,9 C -6,1 C 16,2 km/h (3 Bft)
04/02/2012 12:40 -1,7 C 57 % 1034,0 hPa 0,0 mm 10,1 km/h (2 Bft) NE 45 2 min 0 W/m -9,1 C -5,4 C 16,2 km/h (3 Bft)
04/02/2012 12:50 -1,8 C 57 % 1033,9 hPa 0,0 mm 8,6 km/h (2 Bft) N-NE 22 2 min 0 W/m -9,2 C -5,0 C 11,5 km/h (2 Bft)
04/02/2012 13:00 -1,7 C 56 % 1034,1 hPa 0,0 mm 7,9 km/h (2 Bft) N-NE 22 2 min 0 W/m -9,3 C -4,7 C 11,9 km/h (2 Bft)
04/02/2012 13:10 -1,6 C 57 % 1034,0 hPa 0,0 mm 7,6 km/h (2 Bft) NE 45 2 min 0 W/m -9,0 C -4,5 C 7,6 km/h (2 Bft)
04/02/2012 13:20 -1,6 C 57 % 1034,0 hPa 0,0 mm 10,8 km/h (2 Bft) N-NE 22 2 min 0 W/m -9,0 C -5,4 C 13,0 km/h (3 Bft)
04/02/2012 13:30 -1,6 C 56 % 1034,0 hPa 0,0 mm 7,6 km/h (2 Bft) NE 45 2 min 0 W/m -9,2 C -4,5 C 11,9 km/h (2 Bft)
04/02/2012 13:40 -1,8 C 54 % 1034,0 hPa 0,0 mm 18,0 km/h (3 Bft) N 360 2 min 0 W/m -9,9 C -7,2 C 22,0 km/h (4 Bft)
04/02/2012 13:50 -2,2 C 54 % 1034,0 hPa 0,0 mm 16,6 km/h (3 Bft) E-NE 67 2 min 0 W/m -10,2 C -7,4 C 23,8 km/h (4 Bft)
04/02/2012 14:00 -2,2 C 54 % 1034,1 hPa 0,0 mm 15,5 km/h (3 Bft) NO 315 2 min 0 W/m -10,2 C -7,2 C 27,0 km/h (5 Bft)
04/02/2012 14:10 -2,2 C 55 % 1034,1 hPa 0,0 mm 8,3 km/h (2 Bft) N-NE 22 2 min 0 W/m -10,0 C -5,4 C 17,3 km/h (3 Bft)
04/02/2012 14:20 -2,2 C 54 % 1034,1 hPa 0,0 mm 14,0 km/h (3 Bft) N-NE 22 2 min 0 W/m -10,2 C -6,9 C 15,8 km/h (3 Bft)
04/02/2012 14:30 -2,2 C 53 % 1033,8 hPa 0,0 mm 9,4 km/h (2 Bft) N-NE 22 2 min 0 W/m -10,5 C -5,8 C 15,8 km/h (3 Bft)
04/02/2012 14:40 -2,2 C 54 % 1033,7 hPa 0,0 mm 9,4 km/h (2 Bft) N-NE 22 2 min 0 W/m -10,2 C -5,8 C 9,4 km/h (2 Bft)
04/02/2012 14:50 -2,1 C 54 % 1033,1 hPa 0,0 mm 8,3 km/h (2 Bft) N-NE 22 2 min 0 W/m -10,1 C -5,3 C 10,1 km/h (2 Bft)
04/02/2012 15:00 -2,2 C 53 % 1032,9 hPa 0,0 mm 13,7 km/h (3 Bft) N-NE 22 2 min 0 W/m -10,5 C -6,9 C 19,8 km/h (3 Bft)
04/02/2012 15:10 -2,6 C 51 % 1032,8 hPa 0,0 mm 18,0 km/h (3 Bft) N-NE 22 2 min 0 W/m -11,3 C -8,2 C 27,0 km/h (5 Bft)
04/02/2012 15:20 -2,8 C 52 % 1032,6 hPa 0,0 mm 13,7 km/h (3 Bft) NE 45 2 min 0 W/m -11,3 C -7,6 C 20,5 km/h (4 Bft)
04/02/2012 15:30 -2,9 C 52 % 1032,6 hPa 0,0 mm 9,4 km/h (2 Bft) N-NE 22 2 min 0 W/m -11,3 C -6,6 C 17,3 km/h (3 Bft)
04/02/2012 15:40 -2,8 C 53 % 1032,6 hPa 0,0 mm 7,9 km/h (2 Bft) N-NE 22 2 min 0 W/m -11,0 C -6,0 C 7,9 km/h (2 Bft)
04/02/2012 15:50 -2,8 C 53 % 1032,6 hPa 0,0 mm 4,3 km/h (1 Bft) N 360 2 min 0 W/m -11,0 C -2,8 C 8,6 km/h (2 Bft)
04/02/2012 16:00 -2,9 C 53 % 1032,7 hPa 0,0 mm 9,7 km/h (2 Bft) N-NE 22 2 min 0 W/m -11,1 C -6,7 C 11,5 km/h (2 Bft)
04/02/2012 16:10 -2,9 C 53 % 1032,6 hPa 0,0 mm 13,0 km/h (3 Bft) NE 45 2 min 0 W/m -11,1 C -7,6 C 13,3 km/h (3 Bft)
04/02/2012 16:20 -3,1 C 53 % 1032,7 hPa 0,0 mm 7,6 km/h (2 Bft) NE 45 2 min 0 W/m -11,3 C -6,2 C 11,2 km/h (2 Bft)
04/02/2012 16:30 -3,2 C 54 % 1032,6 hPa 0,0 mm 7,2 km/h (2 Bft) NE 45 2 min 0 W/m -11,2 C -6,2 C 10,8 km/h (2 Bft)
04/02/2012 16:40 -3,2 C 55 % 1032,6 hPa 0,0 mm 4,3 km/h (1 Bft) NE 45 2 min 0 W/m -10,9 C -3,2 C 8,6 km/h (2 Bft)
04/02/2012 16:50 -3,2 C 56 % 1032,7 hPa 0,0 mm 6,5 km/h (2 Bft) E-NE 67 2 min 0 W/m -10,7 C -5,9 C 8,6 km/h (2 Bft)
04/02/2012 17:00 -3,4 C 56 % 1032,7 hPa 0,0 mm 9,7 km/h (2 Bft) N-NE 22 2 min 0 W/m -10,9 C -7,3 C 14,0 km/h (3 Bft)
04/02/2012 17:10 -3,5 C 57 % 1032,7 hPa 0,0 mm 2,9 km/h (1 Bft) NE 45 2 min 0 W/m -10,8 C -3,5 C 4,3 km/h (1 Bft)
04/02/2012 17:20 -3,6 C 57 % 1032,6 hPa 0,0 mm 7,6 km/h (2 Bft) NE 45 2 min 0 W/m -10,9 C -6,8 C 11,2 km/h (2 Bft)
04/02/2012 17:30 -3,7 C 57 % 1032,7 hPa 0,0 mm 1,8 km/h (1 Bft) NE 45 2 min 0 W/m -10,9 C -3,7 C 4,0 km/h (1 Bft)
04/02/2012 17:40 -4,0 C 58 % 1032,7 hPa 0,0 mm 1,8 km/h (1 Bft) NE 45 2 min 0 W/m -11,0 C -4,0 C 1,8 km/h (1 Bft)
04/02/2012 17:50 -4,2 C 59 % 1032,7 hPa 0,0 mm 2,5 km/h (1 Bft) N-NE 22 2 min 0 W/m -11,0 C -4,2 C 4,0 km/h (1 Bft)
04/02/2012 18:00 -4,5 C 60 % 1032,7 hPa 0,0 mm 1,8 km/h (1 Bft) N 360 0 min 0 W/m -11,1 C -4,5 C 4,3 km/h (1 Bft)
04/02/2012 18:10 -4,7 C 60 % 1032,7 hPa 0,0 mm 3,2 km/h (1 Bft) N 360 0 min 0 W/m -11,3 C -4,7 C 4,7 km/h (1 Bft)
04/02/2012 18:20 -4,9 C 61 % 1032,5 hPa 0,0 mm 0,4 km/h (0 Bft) E-NE 67 0 min 0 W/m -11,2 C -4,9 C 0,4 km/h (0 Bft)
04/02/2012 18:30 -5,2 C 61 % 1032,6 hPa 0,0 mm 2,2 km/h (1 Bft) N-NE 22 0 min 0 W/m -11,5 C -5,2 C 4,3 km/h (1 Bft)
04/02/2012 18:40 -5,4 C 62 % 1032,7 hPa 0,0 mm 1,1 km/h (1 Bft) N-NE 22 0 min 0 W/m -11,5 C -5,4 C 6,5 km/h (2 Bft)
04/02/2012 18:50 -5,7 C 63 % 1032,6 hPa 0,0 mm 0,0 km/h (0 Bft) N-NE 22 0 min 0 W/m -11,6 C -5,7 C 0,0 km/h (0 Bft)
04/02/2012 19:00 -6,0 C 63 % 1032,5 hPa 0,0 mm 0,0 km/h (0 Bft) N 360 0 min 0 W/m -11,9 C -6,0 C 0,0 km/h (0 Bft)
04/02/2012 19:10 -6,2 C 64 % 1032,6 hPa 0,0 mm 0,0 km/h (0 Bft) N 360 0 min 0 W/m -11,9 C -6,2 C 0,0 km/h (0 Bft)
04/02/2012 19:20 -6,5 C 65 % 1032,4 hPa 0,0 mm 0,0 km/h (0 Bft) N-NO 337 0 min 0 W/m -12,0 C -6,5 C 0,0 km/h (0 Bft)
04/02/2012 19:30 -6,8 C 66 % 1032,6 hPa 0,0 mm 0,0 km/h (0 Bft) N-NO 337 0 min 0 W/m -12,1 C -6,8 C 0,0 km/h (0 Bft)
04/02/2012 19:40 -7,2 C 66 % 1032,6 hPa 0,0 mm 0,0 km/h (0 Bft) N-NO 337 0 min 0 W/m -12,4 C -7,2 C 0,0 km/h (0 Bft)
04/02/2012 19:50 -7,5 C 67 % 1032,7 hPa 0,0 mm 0,0 km/h (0 Bft) N-NO 337 0 min 0 W/m -12,5 C -7,5 C 0,0 km/h (0 Bft)
04/02/2012 20:00 -7,8 C 68 % 1032,7 hPa 0,0 mm 0,0 km/h (0 Bft) N-NO 337 0 min 0 W/m -12,6 C -7,8 C 0,0 km/h (0 Bft)
04/02/2012 20:10 -8,2 C 68 % 1032,7 hPa 0,0 mm 0,0 km/h (0 Bft) N-NO 337 0 min 0 W/m -13,0 C -8,2 C 0,0 km/h (0 Bft)
04/02/2012 20:20 -8,4 C 69 % 1032,5 hPa 0,0 mm 0,0 km/h (0 Bft) N 360 0 min 0 W/m -13,0 C -8,4 C 0,0 km/h (0 Bft)
04/02/2012 20:30 -8,6 C 69 % 1032,4 hPa 0,0 mm 0,0 km/h (0 Bft) N 360 0 min 0 W/m -13,2 C -8,6 C 0,0 km/h (0 Bft)
04/02/2012 20:40 -8,8 C 70 % 1032,5 hPa 0,0 mm 0,0 km/h (0 Bft) N 360 0 min 0 W/m -13,3 C -8,8 C 0,0 km/h (0 Bft)
04/02/2012 20:50 -8,9 C 71 % 1032,5 hPa 0,0 mm 0,0 km/h (0 Bft) N 360 0 min 0 W/m -13,2 C -8,9 C 0,0 km/h (0 Bft)
04/02/2012 21:00 -9,1 C 71 % 1032,6 hPa 0,0 mm 0,0 km/h (0 Bft) N 360 0 min 0 W/m -13,4 C -9,1 C 0,0 km/h (0 Bft)
04/02/2012 21:10 -9,2 C 71 % 1032,6 hPa 0,0 mm 0,0 km/h (0 Bft) N 360 0 min 0 W/m -13,5 C -9,2 C 0,0 km/h (0 Bft)
04/02/2012 21:20 -9,4 C 72 % 1032,7 hPa 0,0 mm 0,0 km/h (0 Bft) N 360 0 min 0 W/m -13,5 C -9,4 C 0,0 km/h (0 Bft)
04/02/2012 21:30 -9,4 C 73 % 1032,6 hPa 0,0 mm 0,0 km/h (0 Bft) E-NE 67 0 min 0 W/m -13,3 C -9,4 C 0,0 km/h (0 Bft)
04/02/2012 21:40 -9,4 C 73 % 1032,6 hPa 0,0 mm 0,0 km/h (0 Bft) E-NE 67 0 min 0 W/m -13,3 C -9,4 C 0,0 km/h (0 Bft)
04/02/2012 21:50 -9,4 C 74 % 1032,7 hPa 0,0 mm 0,0 km/h (0 Bft) E-NE 67 0 min 0 W/m -13,2 C -9,4 C 0,0 km/h (0 Bft)
04/02/2012 22:00 -9,4 C 74 % 1032,7 hPa 0,0 mm 0,0 km/h (0 Bft) E-NE 67 0 min 0 W/m -13,2 C -9,4 C 0,0 km/h (0 Bft)
04/02/2012 22:10 -9,6 C 75 % 1032,6 hPa 0,0 mm 0,0 km/h (0 Bft) E-NE 67 0 min 0 W/m -13,2 C -9,6 C 0,0 km/h (0 Bft)
04/02/2012 22:20 -9,7 C 76 % 1032,5 hPa 0,0 mm 0,0 km/h (0 Bft) E-NE 67 0 min 0 W/m -13,1 C -9,7 C 0,0 km/h (0 Bft)
04/02/2012 22:30 -9,9 C 76 % 1032,4 hPa 0,0 mm 0,0 km/h (0 Bft) E-NE 67 0 min 0 W/m -13,3 C -9,9 C 0,0 km/h (0 Bft)
04/02/2012 22:40 -9,9 C 77 % 1032,1 hPa 0,0 mm 0,0 km/h (0 Bft) E-NE 67 0 min 0 W/m -13,1 C -9,9 C 0,0 km/h (0 Bft)
04/02/2012 22:50 -10,1 C 77 % 1032,1 hPa 0,0 mm 0,0 km/h (0 Bft) E-NE 67 0 min 0 W/m -13,3 C -10,1 C 0,0 km/h (0 Bft)
04/02/2012 23:00 -10,2 C 77 % 1032,0 hPa 0,0 mm 0,0 km/h (0 Bft) E-NE 67 0 min 0 W/m -13,4 C -10,2 C 0,0 km/h (0 Bft)
04/02/2012 23:10 -10,4 C 78 % 1032,0 hPa 0,0 mm 0,0 km/h (0 Bft) E-NE 67 0 min 0 W/m -13,5 C -10,4 C 0,0 km/h (0 Bft)
04/02/2012 23:20 -10,5 C 78 % 1031,9 hPa 0,0 mm 0,0 km/h (0 Bft) E-NE 67 0 min 0 W/m -13,6 C -10,5 C 0,0 km/h (0 Bft)
04/02/2012 23:30 -10,5 C 79 % 1031,6 hPa 0,0 mm 0,0 km/h (0 Bft) E-NE 67 0 min 0 W/m -13,4 C -10,5 C 0,0 km/h (0 Bft)
04/02/2012 23:40 -10,7 C 79 % 1031,6 hPa 0,0 mm 0,0 km/h (0 Bft) E-NE 67 0 min 0 W/m -13,6 C -10,7 C 0,0 km/h (0 Bft)
04/02/2012 23:50 -10,7 C 79 % 1031,5 hPa 0,0 mm 0,0 km/h (0 Bft) O-SO 247 0 min 0 W/m -13,6 C -10,7 C 0,0 km/h (0 Bft)
_ Min-Heure 23:50 15:10 04:30 - 23:50 - - - - 23:50 23:50 23:50
Minimum _ -10,7 C 51 % 1030,9 hPa - 0,0 km/h (0 Bft) - - - - -13,6 C -10,7 C 0,0 km/h (0 Bft)
_ Max-Heure 13:30 09:20 14:20 23:50 15:10 - - 17:50 23:50 10:10 11:40 15:10
Maximum _ -1,6 C 86 % 1034,1 hPa 0,0 mm 18,0 km/h
N-NE (3 Bft)
- - 2 min 0 W/m -7,4 C -2,2 C 27,0 km/h
N-NE (5 Bft)
Moyenne _ -5,5 C 71 % 1032,5 hPa #0,0 mm 4,7 km/h (1 Bft) N-NE - #1:54 h 0 W/m -10,2 C -7,0 C 7,1 km/h (2 Bft)
Saint Bonnet de Bellac- Haute Vienne - France